Arundel, Maine
Current Conditions -  °F | °C
As of 3:55 AM on Wednesday 28 Jan 2015 (Local Time) from KSFM Reporting Station
Clear Clear  
Wind Chill:   Ceiling: Unl
Heat Index: 16°   Visibility: 6mi
Dew Point:   Wind: 13mph
Humidity: 58%   Direction: 340°NNW
Pressure: 29.7"   Gusts: 23mph
Location:  43.4079°N, 70.4735°W
Report Text: KSFM 280855Z AUTO 34011G20KT 6SM CLR M09/M16 A2970 RMK AO1 52024
Loading
Personal Weather Stations






























Interactive Weather Map New forecast layout! Learn more

10-Day Weather Forecast

Advertisements
Track Severe Weather on mobile